createdAt,value
2022-09-15T00:00:32.655Z,5.37
2022-09-15T00:02:59.570Z,6.60
2022-09-15T00:05:26.597Z,5.33
2022-09-15T00:07:53.442Z,5.37
2022-09-15T00:10:20.344Z,4.67
2022-09-15T00:12:48.675Z,7.17
2022-09-15T00:15:17.707Z,4.57
2022-09-15T00:17:49.823Z,6.67
2022-09-15T00:20:18.621Z,6.70
2022-09-15T00:22:45.609Z,7.00
2022-09-15T00:25:15.361Z,5.87
2022-09-15T00:27:42.312Z,5.23
2022-09-15T00:30:09.589Z,5.20
2022-09-15T00:32:36.440Z,5.70
2022-09-15T00:35:05.172Z,7.63
2022-09-15T00:37:33.594Z,5.07
2022-09-15T00:40:00.486Z,9.37
2022-09-15T00:42:27.378Z,6.10
2022-09-15T00:45:00.844Z,5.07
2022-09-15T00:47:38.859Z,6.83
2022-09-15T00:50:11.191Z,5.10
2022-09-15T00:52:47.952Z,4.97
2022-09-15T00:55:17.435Z,5.40
2022-09-15T00:58:04.249Z,4.33
2022-09-15T01:00:31.163Z,5.97
2022-09-15T01:02:59.142Z,6.83
2022-09-15T01:05:32.988Z,5.50
2022-09-15T01:08:21.997Z,6.23
2022-09-15T01:10:49.277Z,5.23
2022-09-15T01:13:16.461Z,7.73
2022-09-15T01:16:21.636Z,8.50
2022-09-15T01:18:54.357Z,5.73
2022-09-15T01:21:27.092Z,9.27
2022-09-15T01:24:06.099Z,7.37
2022-09-15T01:26:56.535Z,7.20
2022-09-15T01:29:42.115Z,5.70
2022-09-15T01:32:35.452Z,5.37
2022-09-15T01:35:17.358Z,5.03
2022-09-15T01:37:50.290Z,7.67
2022-09-15T01:40:18.986Z,7.10
2022-09-15T01:42:48.416Z,5.87
2022-09-15T01:45:23.636Z,5.03
2022-09-15T01:47:54.547Z,5.57
2022-09-15T01:50:28.766Z,7.13
2022-09-15T01:53:02.382Z,6.30
2022-09-15T01:55:52.165Z,5.83
2022-09-15T01:58:19.695Z,7.47
2022-09-15T02:00:53.600Z,4.57
2022-09-15T02:03:27.527Z,5.43
2022-09-15T02:06:02.822Z,5.10
2022-09-15T02:08:47.635Z,3.93
2022-09-15T02:11:21.026Z,7.63
2022-09-15T02:14:17.733Z,6.57
2022-09-15T02:16:49.453Z,4.50
2022-09-15T02:19:31.682Z,6.50
2022-09-15T02:22:10.670Z,4.57
2022-09-15T02:24:45.832Z,5.30
2022-09-15T02:27:18.406Z,5.33
2022-09-15T02:29:48.895Z,5.57
2022-09-15T02:32:18.868Z,5.90
2022-09-15T02:34:50.524Z,4.50
2022-09-15T02:37:21.340Z,4.70
2022-09-15T02:39:53.576Z,4.50
2022-09-15T02:42:28.623Z,6.57
2022-09-15T02:44:56.052Z,5.80
2022-09-15T02:47:24.092Z,4.93
2022-09-15T02:49:51.312Z,5.33
2022-09-15T02:52:18.208Z,8.17
2022-09-15T02:54:45.105Z,6.60
2022-09-15T02:57:14.044Z,5.80
2022-09-15T03:00:02.957Z,8.33
2022-09-15T03:02:34.625Z,7.77
2022-09-15T03:05:02.548Z,5.20
2022-09-15T03:07:30.470Z,7.00
2022-09-15T03:09:57.767Z,4.93
2022-09-15T03:12:25.614Z,6.17
2022-09-15T03:14:52.546Z,5.13
2022-09-15T03:17:19.553Z,8.63
2022-09-15T03:19:46.439Z,20.60
2022-09-15T03:22:13.370Z,6.20
2022-09-15T03:24:42.317Z,7.33
2022-09-15T03:27:09.418Z,6.17
2022-09-15T03:29:36.279Z,6.40
2022-09-15T03:32:03.155Z,5.50
2022-09-15T03:34:30.041Z,6.37
2022-09-15T03:36:56.890Z,6.10
2022-09-15T03:39:24.363Z,8.33
2022-09-15T03:41:51.258Z,8.50
2022-09-15T03:44:19.285Z,9.10
2022-09-15T03:46:46.709Z,11.13
2022-09-15T03:49:15.113Z,5.47
2022-09-15T03:51:42.188Z,5.83
2022-09-15T03:54:09.206Z,5.73
2022-09-15T03:56:37.642Z,6.70
2022-09-15T03:59:05.847Z,6.40
2022-09-15T04:01:32.846Z,5.10
2022-09-15T04:04:00.484Z,5.63
2022-09-15T04:06:27.555Z,5.37
2022-09-15T04:08:55.221Z,4.13
2022-09-15T04:11:22.915Z,5.13
2022-09-15T04:13:50.502Z,5.73
2022-09-15T04:16:19.828Z,4.40
2022-09-15T04:18:46.955Z,11.13
2022-09-15T04:21:16.407Z,5.00
2022-09-15T04:23:44.310Z,6.67
2022-09-15T04:26:36.082Z,6.30
2022-09-15T04:29:05.255Z,6.47
2022-09-15T04:31:33.222Z,8.17
2022-09-15T04:34:01.280Z,6.67
2022-09-15T04:36:29.767Z,6.57
2022-09-15T04:38:57.235Z,7.93
2022-09-15T04:41:25.872Z,9.67
2022-09-15T04:43:53.303Z,6.97
2022-09-15T04:46:20.849Z,6.10
2022-09-15T04:48:49.403Z,9.20
2022-09-15T04:51:19.673Z,6.37
2022-09-15T04:53:48.988Z,7.30
2022-09-15T04:56:20.675Z,7.20
2022-09-15T04:58:50.459Z,5.10
2022-09-15T05:01:21.311Z,4.60
2022-09-15T05:03:48.919Z,6.97
2022-09-15T05:06:20.156Z,8.77
2022-09-15T05:08:51.502Z,5.23
2022-09-15T05:11:19.427Z,5.03
2022-09-15T05:13:47.075Z,6.03
2022-09-15T05:16:17.072Z,5.03
2022-09-15T05:18:45.544Z,6.47
2022-09-15T05:21:21.074Z,6.03
2022-09-15T05:23:49.450Z,6.57
2022-09-15T05:26:19.826Z,4.33
2022-09-15T05:28:46.749Z,5.80
2022-09-15T05:31:20.422Z,5.77
2022-09-15T05:33:53.895Z,10.50
2022-09-15T05:36:25.955Z,8.50
2022-09-15T05:38:54.297Z,7.70
2022-09-15T05:41:23.005Z,6.77
2022-09-15T05:43:51.043Z,11.73
2022-09-15T05:46:20.661Z,7.70
2022-09-15T05:48:48.981Z,7.10
2022-09-15T05:51:15.986Z,9.53
2022-09-15T05:53:42.919Z,11.63
2022-09-15T05:56:12.164Z,8.40
2022-09-15T05:58:44.163Z,6.20
2022-09-15T06:01:23.140Z,5.77
2022-09-15T06:03:50.734Z,4.03
2022-09-15T06:06:18.440Z,7.70
2022-09-15T06:08:52.815Z,7.27
2022-09-15T06:11:25.090Z,9.03
2022-09-15T06:13:52.003Z,7.57
2022-09-15T06:16:21.790Z,9.17
2022-09-15T06:18:51.478Z,5.97
2022-09-15T06:21:26.250Z,7.93
2022-09-15T06:24:00.984Z,7.00
2022-09-15T06:26:29.485Z,7.33
2022-09-15T06:28:59.325Z,5.33
2022-09-15T06:31:28.384Z,8.97
2022-09-15T06:33:57.010Z,5.03
2022-09-15T06:36:27.283Z,5.63
2022-09-15T06:38:54.811Z,7.30
2022-09-15T06:41:21.862Z,4.43
2022-09-15T06:43:49.460Z,4.23
2022-09-15T06:46:20.876Z,6.47
2022-09-15T06:48:48.752Z,8.70
2022-09-15T06:51:36.196Z,4.20
2022-09-15T06:54:04.388Z,4.17
2022-09-15T06:56:34.563Z,8.17
2022-09-15T06:59:04.968Z,4.57
2022-09-15T07:01:32.469Z,9.43
2022-09-15T07:04:02.880Z,6.30
2022-09-15T07:06:32.186Z,5.83
2022-09-15T07:08:59.603Z,4.47
2022-09-15T07:11:27.238Z,4.07
2022-09-15T07:13:54.149Z,10.23
2022-09-15T07:16:22.072Z,4.37
2022-09-15T07:18:50.045Z,5.17
2022-09-15T07:21:20.317Z,3.57
2022-09-15T07:23:49.305Z,3.83
2022-09-15T07:26:29.976Z,5.13
2022-09-15T07:28:59.791Z,5.70
2022-09-15T07:31:30.237Z,4.53
2022-09-15T07:33:59.361Z,5.23
2022-09-15T07:36:26.749Z,3.77
2022-09-15T07:38:53.812Z,3.03
2022-09-15T07:41:25.045Z,3.40
2022-09-15T07:43:54.097Z,6.30
2022-09-15T07:46:22.597Z,5.53
2022-09-15T07:48:52.090Z,11.00
2022-09-15T07:51:19.832Z,7.83
2022-09-15T07:53:48.402Z,10.23
2022-09-15T07:56:20.032Z,6.00
2022-09-15T07:58:48.217Z,5.70
2022-09-15T08:01:16.533Z,3.87
2022-09-15T08:03:51.411Z,6.67
2022-09-15T08:09:05.872Z,6.20
2022-09-15T08:11:32.816Z,6.57
2022-09-15T08:14:02.860Z,5.03
2022-09-15T08:16:30.744Z,10.17
2022-09-15T08:18:57.762Z,4.83
2022-09-15T08:21:42.196Z,4.57
2022-09-15T08:24:10.638Z,7.27
2022-09-15T08:26:38.930Z,9.77
2022-09-15T08:29:10.372Z,6.93
2022-09-15T08:31:40.113Z,5.17
2022-09-15T08:34:07.131Z,5.33
2022-09-15T08:36:34.376Z,5.37
2022-09-15T08:39:02.569Z,4.97
2022-09-15T08:41:33.935Z,4.33
2022-09-15T08:44:22.816Z,4.23
2022-09-15T08:47:20.856Z,5.53
2022-09-15T08:50:32.130Z,5.80
2022-09-15T08:53:07.848Z,20.23
2022-09-15T08:55:43.664Z,5.47
2022-09-15T08:58:36.273Z,16.63
2022-09-15T09:01:12.195Z,5.50
2022-09-15T09:04:13.720Z,7.27
2022-09-15T09:07:10.720Z,6.87
2022-09-15T09:09:57.775Z,5.30
2022-09-15T09:13:02.129Z,6.50
2022-09-15T09:15:36.374Z,4.80
2022-09-15T09:18:12.682Z,4.33
2022-09-15T09:20:52.974Z,8.13
2022-09-15T09:23:26.318Z,5.63
2022-09-15T09:25:53.477Z,11.70
2022-09-15T09:28:30.835Z,7.63
2022-09-15T09:31:04.183Z,9.17
2022-09-15T09:33:51.520Z,8.80
2022-09-15T09:36:18.615Z,5.73
2022-09-15T09:38:48.274Z,5.20
2022-09-15T09:41:21.695Z,6.13
2022-09-15T09:43:53.233Z,9.23
2022-09-15T09:46:23.062Z,7.63
2022-09-15T09:49:35.621Z,4.40
2022-09-15T09:52:04.788Z,3.67
2022-09-15T09:54:33.990Z,5.43
2022-09-15T09:57:40.998Z,3.90
2022-09-15T10:00:40.864Z,5.57
2022-09-15T10:03:18.386Z,6.87
2022-09-15T10:06:00.048Z,7.03
2022-09-15T10:08:27.532Z,6.63
2022-09-15T10:11:00.569Z,7.87
2022-09-15T10:13:27.473Z,6.33
2022-09-15T10:15:57.990Z,9.47
2022-09-15T10:18:38.380Z,6.57
2022-09-15T10:21:08.599Z,6.83
2022-09-15T10:23:36.319Z,3.57
2022-09-15T10:26:15.159Z,5.23
2022-09-15T10:28:43.388Z,3.90
2022-09-15T10:31:26.728Z,6.13
2022-09-15T10:33:53.707Z,4.83
2022-09-15T10:36:29.865Z,5.07
2022-09-15T10:39:21.491Z,4.40
2022-09-15T10:42:10.137Z,9.17
2022-09-15T10:44:54.761Z,7.30
2022-09-15T10:47:40.676Z,6.80
2022-09-15T10:50:21.223Z,7.13
2022-09-15T10:53:20.457Z,3.65
2022-09-15T10:55:58.730Z,12.97
2022-09-15T10:58:48.963Z,7.60
2022-09-15T11:01:19.051Z,11.77
2022-09-15T11:03:51.974Z,8.43
2022-09-15T11:06:32.828Z,5.32
2022-09-15T11:09:23.644Z,8.65
2022-09-15T11:11:51.697Z,10.80
2022-09-15T11:14:44.733Z,8.50
2022-09-15T11:17:30.498Z,7.45
2022-09-15T11:20:25.436Z,6.65
2022-09-15T11:22:54.995Z,10.82
2022-09-15T11:25:25.790Z,4.00
2022-09-15T11:28:04.571Z,7.60
2022-09-15T11:30:59.333Z,7.63
2022-09-15T11:33:47.964Z,8.95
2022-09-15T11:36:21.369Z,6.78
2022-09-15T11:38:57.693Z,11.30
2022-09-15T11:41:34.905Z,9.25
2022-09-15T11:44:43.396Z,10.38
2022-09-15T11:47:31.817Z,14.00
2022-09-15T11:50:09.971Z,10.15
2022-09-15T11:53:00.862Z,9.40
2022-09-15T11:56:19.910Z,9.93
2022-09-15T11:59:12.411Z,9.52
2022-09-15T12:01:59.588Z,5.07
2022-09-15T12:04:32.060Z,12.75
2022-09-15T12:07:14.559Z,7.65
2022-09-15T12:09:44.116Z,6.47
2022-09-15T12:12:22.818Z,9.35
2022-09-15T12:14:52.946Z,12.27
2022-09-15T12:17:37.622Z,9.45
2022-09-15T12:20:14.617Z,8.00
2022-09-15T12:22:47.938Z,9.70
2022-09-15T12:25:27.510Z,17.55
2022-09-15T12:28:22.180Z,11.45
2022-09-15T12:31:09.964Z,11.82
2022-09-15T12:33:42.861Z,11.98
2022-09-15T12:36:45.795Z,9.90
2022-09-15T12:39:18.658Z,7.75
2022-09-15T12:42:10.235Z,7.32
2022-09-15T12:44:40.663Z,6.05
2022-09-15T12:47:20.883Z,8.75
2022-09-15T12:49:50.477Z,8.02
2022-09-15T12:52:20.532Z,13.23
2022-09-15T12:54:54.672Z,6.80
2022-09-15T12:57:32.027Z,7.00
2022-09-15T13:00:23.846Z,5.40
2022-09-15T13:02:51.574Z,16.95
2022-09-15T13:05:43.118Z,13.27
2022-09-15T13:08:34.587Z,11.90
2022-09-15T13:11:20.898Z,9.77
2022-09-15T13:13:50.926Z,10.10
2022-09-15T13:17:10.372Z,8.80
2022-09-15T13:19:44.380Z,6.28
2022-09-15T13:22:11.297Z,8.30
2022-09-15T13:24:40.917Z,11.07
2022-09-15T13:27:08.958Z,9.60
2022-09-15T13:29:48.337Z,11.65
2022-09-15T13:32:18.427Z,14.43
2022-09-15T13:35:06.071Z,4.88
2022-09-15T13:38:08.385Z,7.13
2022-09-15T14:27:29.789Z,8.02
2022-09-15T14:29:58.622Z,9.77
2022-09-15T14:32:28.990Z,10.10
2022-09-15T14:35:04.029Z,6.75
2022-09-15T14:37:34.833Z,11.38
2022-09-15T14:40:17.353Z,13.20
2022-09-15T14:42:44.694Z,10.60
2022-09-15T14:48:01.473Z,10.07
2022-09-15T14:50:33.219Z,9.52
2022-09-15T14:53:10.611Z,14.88
2022-09-15T14:55:55.841Z,9.13
2022-09-15T14:58:32.641Z,13.18
2022-09-15T15:01:30.559Z,9.82
2022-09-15T15:04:18.928Z,10.20
2022-09-15T15:07:08.215Z,12.18
2022-09-15T15:09:49.250Z,13.77
2022-09-15T15:12:35.697Z,10.85
2022-09-15T15:15:03.193Z,14.68
2022-09-15T15:17:49.815Z,11.30
2022-09-15T15:20:23.625Z,10.02
2022-09-15T15:23:25.399Z,12.23
2022-09-15T15:25:53.959Z,12.97
2022-09-15T15:28:35.905Z,12.30
2022-09-15T15:31:07.629Z,9.10
2022-09-15T15:33:34.726Z,7.40
2022-09-15T15:36:09.121Z,10.60
2022-09-15T15:38:48.304Z,11.70
2022-09-15T15:45:53.248Z,10.10
2022-09-15T15:49:11.357Z,9.67
2022-09-15T15:51:38.204Z,8.30
2022-09-15T15:54:05.702Z,13.33
2022-09-15T15:59:23.326Z,11.50
2022-09-15T16:01:53.563Z,16.17
2022-09-15T16:04:20.513Z,16.43
2022-09-15T16:06:47.861Z,15.80
2022-09-15T16:09:17.297Z,18.10
2022-09-15T16:11:44.276Z,9.77
2022-09-15T16:14:13.530Z,14.27
2022-09-15T16:16:40.995Z,11.27
2022-09-15T16:19:08.655Z,16.00
2022-09-15T16:21:39.794Z,12.83
2022-09-15T16:24:12.698Z,21.73
2022-09-15T16:26:40.507Z,14.57
2022-09-15T16:36:15.442Z,17.00
2022-09-15T16:38:43.057Z,18.07
2022-09-15T16:41:12.777Z,23.77
2022-09-15T16:43:39.685Z,21.10
2022-09-15T16:46:08.708Z,34.17
2022-09-15T16:48:35.639Z,22.10
2022-09-15T16:51:20.985Z,28.37
2022-09-15T16:53:52.030Z,26.33
2022-09-15T16:56:19.455Z,24.97
2022-09-15T16:58:46.376Z,24.70
2022-09-15T17:01:18.905Z,21.07
2022-09-15T17:03:46.733Z,18.07
2022-09-15T17:06:16.376Z,19.60
2022-09-15T17:08:44.011Z,20.63
2022-09-15T17:11:16.512Z,13.30
2022-09-15T17:13:44.872Z,16.80
2022-09-15T17:16:14.915Z,16.03
2022-09-15T17:18:44.108Z,15.77
2022-09-15T17:21:12.375Z,12.70
2022-09-15T17:23:42.650Z,11.47
2022-09-15T17:26:12.936Z,8.47
2022-09-15T17:28:40.897Z,10.73
2022-09-15T17:31:13.503Z,12.83
2022-09-15T17:33:40.751Z,15.77
2022-09-15T17:36:08.182Z,11.10
2022-09-15T17:38:35.279Z,12.17
2022-09-15T17:41:03.004Z,14.17
2022-09-15T17:43:32.013Z,14.07
2022-09-15T17:46:01.860Z,10.23
2022-09-15T17:48:28.871Z,11.27
2022-09-15T17:50:55.751Z,9.47
2022-09-15T17:53:26.858Z,10.50
2022-09-15T17:55:55.560Z,11.83
2022-09-15T17:58:23.986Z,12.83
2022-09-15T18:00:52.420Z,10.87
2022-09-15T18:03:22.293Z,14.50
2022-09-15T18:05:50.351Z,14.33
2022-09-15T18:08:18.545Z,11.33
2022-09-15T18:10:46.053Z,9.17
2022-09-15T18:13:15.648Z,18.23
2022-09-15T18:15:44.351Z,11.40
2022-09-15T18:18:20.782Z,17.13
2022-09-15T18:20:54.079Z,14.30
2022-09-15T18:23:23.518Z,15.73
2022-09-15T18:25:53.552Z,11.90
2022-09-15T18:28:20.846Z,13.43
2022-09-15T18:30:51.956Z,19.47
2022-09-15T18:33:26.846Z,14.27
2022-09-15T18:35:56.312Z,18.27
2022-09-15T18:38:23.988Z,14.80
2022-09-15T18:40:57.949Z,15.70
2022-09-15T18:43:30.200Z,14.47
2022-09-15T18:46:01.314Z,18.10
2022-09-15T18:48:29.263Z,12.40
2022-09-15T18:50:57.864Z,8.47
2022-09-15T18:53:26.097Z,13.93
2022-09-15T18:55:53.029Z,9.40
2022-09-15T18:58:22.421Z,9.67
2022-09-15T19:00:54.252Z,12.67
2022-09-15T19:03:22.222Z,13.43
2022-09-15T19:05:51.262Z,6.67
2022-09-15T19:08:19.946Z,10.00
2022-09-15T19:10:57.816Z,12.00
2022-09-15T19:13:25.189Z,10.53
2022-09-15T19:15:53.688Z,10.10
2022-09-15T19:18:24.562Z,6.60
2022-09-15T19:21:05.705Z,11.83
2022-09-15T19:23:32.864Z,9.60
2022-09-15T19:26:11.601Z,11.17
2022-09-15T19:28:39.466Z,12.70
2022-09-15T19:31:06.925Z,9.27
2022-09-15T19:33:34.855Z,14.67
2022-09-15T19:36:26.786Z,9.97
2022-09-15T19:38:56.460Z,7.53
2022-09-15T19:41:27.365Z,10.37
2022-09-15T19:46:40.752Z,10.97
2022-09-15T19:49:08.220Z,9.37
2022-09-15T19:51:35.251Z,14.57
2022-09-15T19:54:02.170Z,13.37
2022-09-15T19:56:30.123Z,11.63
2022-09-15T19:58:59.149Z,9.57
2022-09-15T20:01:29.778Z,12.20
2022-09-15T20:03:58.596Z,7.37
2022-09-15T20:06:28.962Z,6.57
2022-09-15T20:08:59.467Z,10.87
2022-09-15T20:11:35.949Z,10.43
2022-09-15T20:14:03.802Z,5.63
2022-09-15T20:16:34.099Z,8.97
2022-09-15T20:19:03.715Z,11.27
2022-09-15T20:24:20.092Z,6.40
2022-09-15T20:26:48.640Z,7.37
2022-09-15T20:29:17.469Z,8.30
2022-09-15T20:31:46.373Z,8.47
2022-09-15T20:34:20.550Z,9.80
2022-09-15T20:36:50.103Z,9.73
2022-09-15T20:39:19.579Z,8.90
2022-09-15T20:41:48.915Z,11.27
2022-09-15T20:44:25.505Z,6.40
2022-09-15T20:46:54.166Z,13.07
2022-09-15T20:49:23.279Z,6.73
2022-09-15T20:51:59.409Z,8.30
2022-09-15T20:54:26.480Z,12.27
2022-09-15T20:56:53.401Z,10.40
2022-09-15T20:59:20.602Z,10.80
2022-09-15T21:01:47.608Z,11.67
2022-09-15T21:04:14.840Z,6.73
2022-09-15T21:06:41.772Z,9.67
2022-09-15T21:09:08.730Z,14.27
2022-09-15T21:11:35.799Z,12.37
2022-09-15T21:14:03.281Z,12.97
2022-09-15T21:16:30.532Z,9.73
2022-09-15T21:18:58.536Z,8.43
2022-09-15T21:21:28.371Z,10.13
2022-09-15T21:23:58.685Z,8.23
2022-09-15T21:26:27.820Z,9.77
2022-09-15T21:28:56.449Z,8.27
2022-09-15T21:31:26.731Z,7.80
2022-09-15T21:33:54.772Z,13.47
2022-09-15T21:36:25.028Z,10.37
2022-09-15T21:38:54.763Z,10.57
2022-09-15T21:41:26.022Z,9.33
2022-09-15T21:43:55.599Z,8.17
2022-09-15T21:46:25.920Z,9.30
2022-09-15T21:48:53.420Z,7.63
2022-09-15T21:51:24.508Z,8.93
2022-09-15T21:53:56.306Z,13.00
2022-09-15T21:56:24.620Z,8.10
2022-09-15T21:58:51.775Z,8.07
2022-09-15T22:01:21.546Z,10.00
2022-09-15T22:03:51.533Z,10.17
2022-09-15T22:06:20.978Z,6.83
2022-09-15T22:08:48.043Z,8.20
2022-09-15T22:11:15.435Z,9.33
2022-09-15T22:13:44.136Z,11.70
2022-09-15T22:16:16.660Z,12.63
2022-09-15T22:18:44.015Z,7.97
2022-09-15T22:21:14.931Z,7.63
2022-09-15T22:23:43.200Z,9.53
2022-09-15T22:26:12.941Z,11.07
2022-09-15T22:28:40.218Z,6.53
2022-09-15T22:31:10.390Z,7.10
2022-09-15T22:33:39.570Z,8.80
2022-09-15T22:36:13.254Z,9.17
2022-09-15T22:38:40.175Z,9.57
2022-09-15T22:41:09.468Z,7.90
2022-09-15T22:43:38.346Z,8.53
2022-09-15T22:46:06.383Z,9.13
2022-09-15T22:48:33.576Z,6.80
2022-09-15T22:51:00.918Z,7.30
2022-09-15T22:53:27.959Z,8.70
2022-09-15T22:56:05.438Z,7.63
2022-09-15T22:58:36.371Z,9.37
2022-09-15T23:01:04.366Z,8.40
2022-09-15T23:03:31.721Z,9.07
2022-09-15T23:05:59.779Z,7.93
2022-09-15T23:08:26.805Z,11.40
2022-09-15T23:10:53.839Z,8.10
2022-09-15T23:13:20.683Z,10.10
2022-09-15T23:15:49.122Z,6.43
2022-09-15T23:18:17.840Z,13.87
2022-09-15T23:20:45.400Z,5.70
2022-09-15T23:23:12.308Z,9.50
2022-09-15T23:25:39.126Z,9.67
2022-09-15T23:28:05.954Z,9.97
2022-09-15T23:30:32.822Z,11.53
2022-09-15T23:32:59.670Z,7.13
2022-09-15T23:35:26.534Z,8.30
2022-09-15T23:37:53.379Z,5.77
2022-09-15T23:40:20.498Z,11.17
2022-09-15T23:42:49.863Z,9.40
2022-09-15T23:45:16.730Z,8.03
2022-09-15T23:47:43.598Z,11.23
2022-09-15T23:50:10.480Z,7.13
2022-09-15T23:52:37.529Z,10.10
2022-09-15T23:55:04.871Z,8.87
2022-09-15T23:57:31.768Z,7.07
2022-09-15T23:59:58.599Z,8.87
